Willard, Colorado
Current Conditions -  °F | °C
As of 7:10 AM on Monday 24 Nov 2014 (Local Time) from KSTK Reporting Station
Clear Clear  
Wind Chill: 25°   Ceiling: Unl
Heat Index: 30°   Visibility: 10mi
Dew Point: 19°   Wind: 5mph
Humidity: 64%   Direction: 260°W
Pressure: 29.86"   Gusts: NA
Location:  40.5426°N, 103.449°W
Report Text: KSTK 241410Z AUTO 26004KT 10SM CLR M01/M07 A2986 RMK AO2
Loading
Personal Weather Stations






























Interactive Weather Map New forecast layout! Learn more

10-Day Weather Forecast

Advertisements
Track Severe Weather on mobile